Time;durP1;ratioP1;P1;durP2;ratioP2;P2;SDS_P1;SDS_P2;PMS_P1;PMS_P2;Temp;Humidity;BMP_temperature;BMP_pressure;BME280_temperature;BME280_humidity;BME280_pressure;Samples;Min_cycle;Max_cycle;Signal;HPM_P1;HPM_P2
2022/04/27 00:01:41;;;;;;;5.35;2.90;;;8.70;99.90;;;;;;7372668;19;20369;-81
2022/04/27 00:04:06;;;;;;;3.53;2.80;;;8.70;99.90;;;;;;7374918;19;20334;-78
2022/04/27 00:06:32;;;;;;;3.65;3.30;;;8.70;99.90;;;;;;7375008;19;20305;-80
2022/04/27 00:08:58;;;;;;;5.00;3.30;;;8.70;99.90;;;;;;7376856;19;20316;-82
2022/04/27 00:11:23;;;;;;;4.35;3.20;;;8.60;99.90;;;;;;7372339;19;20356;-77
2022/04/27 00:13:49;;;;;;;3.50;3.20;;;8.60;99.90;;;;;;7373724;19;20451;-75
2022/04/27 00:16:15;;;;;;;3.22;2.90;;;8.60;99.90;;;;;;7371667;19;20345;-77
2022/04/27 00:18:40;;;;;;;3.43;3.13;;;8.70;99.90;;;;;;7376859;19;20309;-74
2022/04/27 00:21:06;;;;;;;3.22;2.92;;;8.60;99.90;;;;;;7369558;19;20372;-79
2022/04/27 00:23:33;;;;;;;3.20;2.80;;;8.60;99.90;;;;;;7373875;19;20356;-77
2022/04/27 00:25:59;;;;;;;3.92;3.33;;;8.60;99.90;;;;;;7374249;19;20327;-81
2022/04/27 00:28:24;;;;;;;3.72;3.25;;;8.50;99.90;;;;;;7377051;19;20340;-78
2022/04/27 00:30:50;;;;;;;3.70;3.10;;;8.60;99.90;;;;;;7367735;19;20349;-77
2022/04/27 00:33:16;;;;;;;3.63;3.33;;;8.40;99.90;;;;;;7375009;19;20586;-80
2022/04/27 00:35:41;;;;;;;4.77;3.00;;;8.30;99.90;;;;;;7374252;19;20349;-77
2022/04/27 00:38:07;;;;;;;3.75;3.38;;;8.30;99.90;;;;;;7376926;19;20337;-77
2022/04/27 00:40:33;;;;;;;3.47;3.00;;;8.30;99.90;;;;;;7372337;19;20377;-79
2022/04/27 00:42:58;;;;;;;3.92;3.35;;;8.20;99.90;;;;;;7373661;19;20348;-81
2022/04/27 00:45:24;;;;;;;3.67;3.38;;;8.20;99.90;;;;;;7374564;19;20350;-74
2022/04/27 00:47:49;;;;;;;3.33;3.03;;;8.10;99.90;;;;;;7375712;19;20325;-74
2022/04/27 00:50:15;;;;;;;3.30;3.00;;;8.10;99.90;;;;;;7371888;19;20344;-83
2022/04/27 00:52:41;;;;;;;3.53;2.70;;;8.10;99.90;;;;;;7373713;19;20874;-79
2022/04/27 00:55:07;;;;;;;3.88;3.05;;;8.10;99.90;;;;;;7374553;19;20344;-74
2022/04/27 00:57:33;;;;;;;3.65;2.95;;;8.00;99.90;;;;;;7375589;19;20321;-74
2022/04/27 00:59:59;;;;;;;3.08;2.80;;;8.10;99.90;;;;;;7374484;19;21172;-75
2022/04/27 01:02:24;;;;;;;3.90;3.10;;;8.00;99.90;;;;;;7372207;19;20361;-76
2022/04/27 01:04:50;;;;;;;3.53;3.03;;;7.90;99.90;;;;;;7375922;19;20357;-80
2022/04/27 01:07:16;;;;;;;4.23;3.43;;;7.90;99.90;;;;;;7376365;19;20336;-77
2022/04/27 01:09:42;;;;;;;4.10;3.70;;;7.80;99.90;;;;;;7377492;19;21166;-77
2022/04/27 01:12:08;;;;;;;3.78;3.47;;;7.60;99.90;;;;;;7384805;19;20344;-74
2022/04/27 01:14:42;;;;;;;3.53;3.20;;;7.50;99.90;;;;;;7385470;19;20345;-77
2022/04/27 01:17:08;;;;;;;3.38;3.08;;;7.40;99.90;;;;;;7382109;19;20327;-77
2022/04/27 01:19:33;;;;;;;4.10;3.70;;;7.40;99.90;;;;;;7380536;19;20340;-75
2022/04/27 01:21:59;;;;;;;3.28;3.08;;;7.30;99.90;;;;;;7383399;19;20933;-73
2022/04/27 01:24:25;;;;;;;4.30;3.22;;;7.30;99.90;;;;;;7385342;19;20769;-77
2022/04/27 01:26:52;;;;;;;3.35;3.05;;;7.10;99.90;;;;;;7389899;19;20340;-73
2022/04/27 01:29:18;;;;;;;3.05;2.75;;;7.00;99.90;;;;;;7388855;19;20365;-80
2022/04/27 01:31:44;;;;;;;3.45;3.05;;;7.10;99.90;;;;;;7385035;19;20321;-76
2022/04/27 01:34:10;;;;;;;3.80;3.40;;;7.00;99.90;;;;;;7390319;19;20328;-74
2022/04/27 01:36:35;;;;;;;3.30;3.00;;;7.00;99.90;;;;;;7390111;19;20332;-72
2022/04/27 01:39:01;;;;;;;3.78;3.40;;;6.90;99.90;;;;;;7389558;19;20319;-73
2022/04/27 01:41:26;;;;;;;3.40;3.10;;;6.90;99.90;;;;;;7391213;19;20336;-75
2022/04/27 01:43:52;;;;;;;3.72;3.28;;;6.80;99.90;;;;;;7391351;19;20332;-74
2022/04/27 01:46:17;;;;;;;3.43;3.13;;;6.80;99.90;;;;;;7391218;19;20308;-74
2022/04/27 01:48:43;;;;;;;3.63;3.33;;;6.90;99.90;;;;;;7389124;19;20406;-75
2022/04/27 01:51:09;;;;;;;3.57;3.10;;;6.90;99.90;;;;;;7387432;19;20353;-76
2022/04/27 01:56:22;;;;;;;4.38;3.05;;;6.70;99.90;;;;;;7284387;19;2004465;-76
2022/04/27 01:58:52;;;;;;;3.20;2.90;;;6.70;99.90;;;;;;7282641;19;2004349;-75
2022/04/27 02:01:18;;;;;;;3.27;2.80;;;6.80;99.90;;;;;;7378333;19;20737;-79
2022/04/27 02:03:44;;;;;;;2.78;2.50;;;6.90;99.90;;;;;;7377326;19;20325;-73
2022/04/27 02:06:16;;;;;;;4.80;3.60;;;6.90;99.90;;;;;;7372983;19;20316;-73
2022/04/27 02:08:42;;;;;;;3.10;2.80;;;6.90;99.90;;;;;;7373786;19;20436;-73
2022/04/27 02:11:08;;;;;;;3.80;3.20;;;6.80;99.90;;;;;;7364955;19;20359;-73
2022/04/27 02:13:38;;;;;;;3.35;2.70;;;6.80;99.90;;;;;;7369664;19;20319;-76
2022/04/27 02:16:04;;;;;;;3.15;2.85;;;6.90;99.90;;;;;;7347514;19;20742;-75
2022/04/27 02:18:36;;;;;;;4.22;2.97;;;6.90;99.90;;;;;;7374797;19;20355;-72
2022/04/27 02:21:02;;;;;;;4.95;3.20;;;7.00;99.90;;;;;;7367360;19;20709;-74
2022/04/27 02:23:28;;;;;;;4.87;3.30;;;6.90;99.90;;;;;;7376679;19;21033;-75
2022/04/27 02:25:57;;;;;;;3.40;3.10;;;6.90;99.90;;;;;;7379645;19;20353;-70
2022/04/27 02:28:22;;;;;;;3.13;2.83;;;6.90;99.90;;;;;;7382426;19;20412;-71
2022/04/27 02:30:48;;;;;;;2.77;2.53;;;7.00;99.90;;;;;;7374760;19;20848;-72
2022/04/27 02:33:13;;;;;;;3.00;2.70;;;7.00;99.90;;;;;;7378824;19;20345;-74
2022/04/27 02:35:41;;;;;;;3.10;2.70;;;7.10;99.90;;;;;;7379556;19;20385;-71
2022/04/27 02:38:07;;;;;;;3.00;2.70;;;7.10;99.90;;;;;;7381373;19;20359;-72
2022/04/27 02:40:32;;;;;;;2.90;2.70;;;7.20;99.90;;;;;;7375965;19;21125;-73
2022/04/27 02:42:59;;;;;;;3.40;2.83;;;7.20;99.90;;;;;;7378277;19;20325;-73
2022/04/27 02:45:24;;;;;;;4.43;3.00;;;7.20;99.90;;;;;;7377207;19;21157;-75
2022/04/27 02:47:50;;;;;;;3.55;2.78;;;7.30;99.90;;;;;;7381936;19;20337;-70
2022/04/27 02:53:02;;;;;;;3.10;2.80;;;7.30;99.90;;;;;;7274282;19;2004286;-72
2022/04/27 02:55:31;;;;;;;4.18;3.30;;;7.30;99.90;;;;;;7376989;19;20316;-72
2022/04/27 02:57:57;;;;;;;4.32;3.58;;;7.30;99.90;;;;;;7381001;19;20665;-73
2022/04/27 03:00:24;;;;;;;3.22;2.92;;;7.30;99.90;;;;;;7374084;19;20391;-70
2022/04/27 03:02:50;;;;;;;3.43;3.13;;;7.20;99.90;;;;;;7374125;19;20329;-71
2022/04/27 03:05:18;;;;;;;3.33;3.03;;;7.40;99.90;;;;;;7375751;19;20898;-72
2022/04/27 03:07:43;;;;;;;3.10;2.83;;;7.20;99.90;;;;;;7380351;19;20349;-71
2022/04/27 03:10:10;;;;;;;3.20;2.80;;;7.30;99.90;;;;;;7375749;19;21025;-70
2022/04/27 03:12:36;;;;;;;2.92;2.60;;;7.30;99.90;;;;;;7375672;19;20403;-72
2022/04/27 03:15:03;;;;;;;3.17;2.90;;;7.40;99.90;;;;;;7372507;19;20343;-74
2022/04/27 03:17:29;;;;;;;5.57;3.88;;;7.40;99.90;;;;;;7359981;19;20352;-72
2022/04/27 03:19:55;;;;;;;4.40;3.97;;;7.50;99.90;;;;;;7369093;19;20336;-71
2022/04/27 03:22:22;;;;;;;4.13;3.37;;;7.30;99.90;;;;;;7378130;19;20337;-73
2022/04/27 03:24:48;;;;;;;4.30;3.05;;;7.10;99.90;;;;;;7378599;19;20370;-71
2022/04/27 03:27:17;;;;;;;4.57;3.25;;;7.20;99.90;;;;;;7378260;19;20349;-72
2022/04/27 03:29:44;;;;;;;3.33;3.03;;;7.20;99.90;;;;;;7374361;19;20332;-72
2022/04/27 03:32:10;;;;;;;3.80;3.40;;;7.20;99.90;;;;;;7376221;19;20348;-74
2022/04/27 03:34:38;;;;;;;3.60;3.30;;;7.20;99.90;;;;;;7372808;19;20341;-73
2022/04/27 03:37:04;;;;;;;6.20;3.88;;;7.30;99.90;;;;;;7375743;19;20323;-74
2022/04/27 03:39:29;;;;;;;3.95;3.63;;;7.40;99.90;;;;;;7379309;19;20369;-77
2022/04/27 03:41:57;;;;;;;6.07;4.93;;;7.40;99.90;;;;;;7382798;19;20348;-74
2022/04/27 03:44:23;;;;;;;5.20;4.23;;;7.30;99.90;;;;;;7386720;19;20850;-73
2022/04/27 03:46:49;;;;;;;4.30;3.60;;;7.10;99.90;;;;;;7387006;19;20388;-72
2022/04/27 03:49:14;;;;;;;4.00;3.60;;;7.20;99.90;;;;;;7391258;19;20362;-75
2022/04/27 03:51:40;;;;;;;3.72;3.35;;;7.10;99.90;;;;;;7389242;19;20360;-73
2022/04/27 03:54:06;;;;;;;4.28;3.40;;;7.10;99.90;;;;;;7389690;19;20359;-74
2022/04/27 03:56:32;;;;;;;3.87;3.10;;;7.20;99.90;;;;;;7387212;19;21092;-74
2022/04/27 03:58:59;;;;;;;4.18;3.55;;;7.10;99.90;;;;;;7385849;19;20406;-75
2022/04/27 04:01:25;;;;;;;4.05;3.45;;;7.20;99.90;;;;;;7385497;19;20712;-73
2022/04/27 04:03:51;;;;;;;5.75;3.60;;;7.30;99.90;;;;;;7386215;19;20324;-74
2022/04/27 04:06:17;;;;;;;3.65;3.35;;;7.20;99.90;;;;;;7383618;19;20356;-76
2022/04/27 04:08:46;;;;;;;4.18;3.55;;;7.20;99.90;;;;;;7381912;19;21033;-77
2022/04/27 04:11:12;;;;;;;3.95;3.55;;;7.30;99.90;;;;;;7380106;19;20308;-80
2022/04/27 04:13:56;;;;;;;3.97;3.53;;;7.30;99.90;;;;;;7284922;19;2004463;-77
2022/04/27 04:16:30;;;;;;;4.13;3.23;;;7.30;99.90;;;;;;7382164;19;20335;-73
2022/04/27 04:19:12;;;;;;;3.53;3.22;;;7.40;99.90;;;;;;7277813;19;2004370;-74
2022/04/27 04:21:59;;;;;;;5.38;3.80;;;7.40;99.90;;;;;;7381704;19;20382;-74
2022/04/27 04:28:29;;;;;;;4.72;4.22;;;7.50;99.90;;;;;;7382664;19;20360;-76
2022/04/27 04:30:18;;;;;;;4.32;3.72;;;7.30;99.90;;;;;;7376229;19;20349;-73
2022/04/27 04:32:51;;;;;;;4.40;4.00;;;7.30;99.90;;;;;;7382850;19;21528;-73
2022/04/27 04:35:39;;;;;;;3.90;3.58;;;7.30;99.90;;;;;;7380490;19;20348;-73
2022/04/27 04:38:05;;;;;;;4.40;4.00;;;7.20;99.90;;;;;;7378406;19;20340;-74
2022/04/27 04:40:31;;;;;;;4.70;4.17;;;7.30;99.90;;;;;;7378609;19;20359;-76
2022/04/27 04:42:57;;;;;;;4.10;3.70;;;7.30;99.90;;;;;;7380619;19;20917;-74
2022/04/27 04:45:23;;;;;;;4.90;3.57;;;7.40;99.90;;;;;;7378349;19;21030;-74
2022/04/27 04:48:04;;;;;;;5.32;4.00;;;7.50;99.90;;;;;;7380704;19;20329;-76
2022/04/27 04:50:56;;;;;;;5.95;4.55;;;7.40;99.90;;;;;;7375523;19;20391;-74
2022/04/27 04:53:40;;;;;;;5.80;4.53;;;7.30;99.90;;;;;;7378640;19;20325;-73
2022/04/27 04:56:32;;;;;;;4.10;3.70;;;7.30;99.90;;;;;;7271127;19;2004430;-73
2022/04/27 04:59:24;;;;;;;4.20;3.80;;;7.30;99.90;;;;;;7376781;19;20336;-75
2022/04/27 05:02:19;;;;;;;4.07;3.30;;;7.40;99.90;;;;;;7274497;19;2004688;-73
2022/04/27 05:05:04;;;;;;;3.58;3.28;;;7.40;99.90;;;;;;7376356;19;20385;-73
2022/04/27 05:07:47;;;;;;;4.13;3.65;;;7.50;99.90;;;;;;7376328;19;20348;-72
2022/04/27 05:10:36;;;;;;;4.43;4.03;;;7.60;99.90;;;;;;7268265;19;2004516;-77
2022/04/27 05:13:10;;;;;;;4.57;4.18;;;7.70;99.90;;;;;;7378401;19;20345;-77
2022/04/27 05:15:48;;;;;;;7.25;4.50;;;7.70;99.90;;;;;;7267975;19;2004411;-73
2022/04/27 05:18:33;;;;;;;4.57;4.15;;;7.70;99.90;;;;;;7274901;19;2004601;-74
2022/04/27 05:21:17;;;;;;;5.20;4.57;;;7.70;99.90;;;;;;7370976;19;20363;-72
2022/04/27 05:23:54;;;;;;;5.57;4.60;;;7.60;99.90;;;;;;7375272;19;20325;-74
2022/04/27 05:26:35;;;;;;;5.05;4.55;;;7.60;99.90;;;;;;7370493;19;20356;-73
2022/04/27 05:32:41;;;;;;;5.10;4.05;;;7.70;99.90;;;;;;7270942;19;2004253;-73
2022/04/27 05:35:24;;;;;;;3.95;3.60;;;7.80;99.90;;;;;;7267958;19;2004481;-74
2022/04/27 05:37:56;;;;;;;4.43;4.03;;;7.90;99.90;;;;;;7374122;19;20365;-73
2022/04/27 05:40:47;;;;;;;6.27;4.53;;;8.00;99.90;;;;;;7372606;19;20372;-73
2022/04/27 05:43:35;;;;;;;4.57;4.18;;;8.00;99.90;;;;;;7255719;19;2004421;-76
2022/04/27 05:46:15;;;;;;;4.63;3.97;;;8.00;99.90;;;;;;7272068;19;2004797;-73
2022/04/27 05:48:53;;;;;;;4.37;3.80;;;8.00;99.90;;;;;;7272755;19;2004335;-74
2022/04/27 05:51:36;;;;;;;4.22;3.83;;;8.10;99.90;;;;;;7270655;19;2004553;-77
2022/04/27 05:54:23;;;;;;;4.43;4.03;;;8.20;99.90;;;;;;7376453;19;20344;-72
2022/04/27 05:56:56;;;;;;;4.20;3.42;;;8.20;99.90;;;;;;7370631;19;20762;-75
2022/04/27 05:59:40;;;;;;;4.30;3.90;;;8.30;99.90;;;;;;7379599;19;20347;-76
2022/04/27 06:02:25;;;;;;;4.88;4.38;;;8.40;99.90;;;;;;7380620;19;21203;-78
2022/04/27 06:04:51;;;;;;;4.93;4.33;;;8.40;99.90;;;;;;7376538;19;20375;-75
2022/04/27 06:07:18;;;;;;;4.85;4.00;;;8.40;99.90;;;;;;7379456;19;20756;-73
2022/04/27 06:09:44;;;;;;;4.27;3.87;;;8.40;99.90;;;;;;7379597;19;21058;-75
2022/04/27 06:12:19;;;;;;;4.32;3.85;;;8.50;99.90;;;;;;7379988;19;20356;-74
2022/04/27 06:15:05;;;;;;;4.67;4.17;;;8.50;99.90;;;;;;7274591;19;2004639;-76
2022/04/27 06:17:31;;;;;;;4.47;4.07;;;8.50;99.90;;;;;;7377631;19;20380;-73
2022/04/27 06:19:59;;;;;;;3.83;3.45;;;8.60;99.90;;;;;;7377805;19;20352;-78
2022/04/27 06:22:25;;;;;;;5.03;4.03;;;8.60;99.90;;;;;;7382040;19;20306;-75
2022/04/27 06:24:50;;;;;;;5.10;4.53;;;8.60;99.90;;;;;;7377920;19;20479;-79
2022/04/27 06:27:35;;;;;;;4.82;4.10;;;8.70;99.90;;;;;;7379831;19;20354;-80
2022/04/27 06:30:01;;;;;;;4.75;4.20;;;8.60;99.90;;;;;;7375733;19;20990;-72
2022/04/27 06:32:31;;;;;;;5.93;4.05;;;8.70;99.90;;;;;;7381981;19;20339;-72
2022/04/27 06:35:00;;;;;;;6.20;4.00;;;8.70;99.90;;;;;;7378217;19;20313;-75
2022/04/27 06:37:27;;;;;;;5.60;4.13;;;8.80;99.90;;;;;;7376256;19;20347;-72
2022/04/27 06:39:52;;;;;;;4.30;3.90;;;8.90;99.90;;;;;;7376762;19;20348;-71
2022/04/27 06:42:21;;;;;;;5.13;4.47;;;8.90;99.90;;;;;;7379107;19;20340;-71
2022/04/27 06:45:06;;;;;;;5.90;5.20;;;8.80;99.90;;;;;;7272647;19;2004510;-71
2022/04/27 06:47:49;;;;;;;5.05;4.40;;;8.70;99.90;;;;;;7379124;19;20377;-72
2022/04/27 06:50:34;;;;;;;6.07;5.18;;;8.70;99.90;;;;;;7376931;19;20384;-72
2022/04/27 06:53:18;;;;;;;4.88;3.92;;;8.80;99.90;;;;;;7382142;19;20377;-71
2022/04/27 06:56:02;;;;;;;4.70;4.07;;;8.80;99.90;;;;;;7273709;19;2004417;-72
2022/04/27 06:58:42;;;;;;;4.70;3.80;;;9.00;99.90;;;;;;7275470;19;2004370;-72
2022/04/27 07:01:19;;;;;;;4.13;3.80;;;9.00;99.90;;;;;;7273744;19;2004744;-72
2022/04/27 07:03:45;;;;;;;4.23;3.83;;;9.10;99.90;;;;;;7376778;19;20329;-74
2022/04/27 07:06:11;;;;;;;4.60;3.78;;;9.20;99.90;;;;;;7373972;19;20344;-72
2022/04/27 07:08:37;;;;;;;4.65;4.07;;;9.30;99.90;;;;;;7373447;19;20364;-74
2022/04/27 07:11:02;;;;;;;5.57;4.77;;;9.30;99.90;;;;;;7370019;19;20406;-72
2022/04/27 07:13:29;;;;;;;5.43;4.38;;;9.10;99.90;;;;;;7372903;19;20704;-74
2022/04/27 07:16:00;;;;;;;5.88;4.20;;;8.90;99.90;;;;;;7367489;19;20340;-76
2022/04/27 07:18:29;;;;;;;5.65;4.68;;;9.10;99.90;;;;;;7372613;19;20387;-75
2022/04/27 07:20:54;;;;;;;5.63;4.60;;;9.00;99.90;;;;;;7371161;19;21137;-73
2022/04/27 07:23:20;;;;;;;5.30;4.28;;;8.90;99.90;;;;;;7376305;19;20336;-72
2022/04/27 07:25:45;;;;;;;4.77;4.27;;;8.80;99.90;;;;;;7375278;19;20414;-74
2022/04/27 07:28:11;;;;;;;5.18;4.68;;;8.90;99.90;;;;;;7374892;19;20888;-73
2022/04/27 07:30:37;;;;;;;6.03;5.13;;;9.10;99.90;;;;;;7374395;19;20354;-76
2022/04/27 07:33:03;;;;;;;4.70;4.20;;;9.00;99.90;;;;;;7376223;19;20745;-73
2022/04/27 07:35:29;;;;;;;5.35;4.70;;;9.10;99.90;;;;;;7373643;19;20337;-82
2022/04/27 07:37:54;;;;;;;6.50;5.00;;;9.30;99.90;;;;;;7375912;19;20356;-73
2022/04/27 07:40:20;;;;;;;6.35;5.00;;;9.20;99.90;;;;;;7375224;19;20397;-73
2022/04/27 07:42:45;;;;;;;6.07;4.67;;;9.30;99.90;;;;;;7380048;19;20392;-81
2022/04/27 07:45:11;;;;;;;5.32;4.82;;;9.40;99.90;;;;;;7376285;19;20332;-75
2022/04/27 07:47:38;;;;;;;4.80;4.07;;;9.50;99.90;;;;;;7374374;19;20320;-78
2022/04/27 07:50:06;;;;;;;6.43;4.93;;;9.60;99.90;;;;;;7376774;19;21081;-83
2022/04/27 07:52:32;;;;;;;6.00;4.93;;;9.70;99.90;;;;;;7376893;19;20888;-81
2022/04/27 07:54:58;;;;;;;5.82;4.55;;;9.70;99.90;;;;;;7374609;19;20360;-79
2022/04/27 07:57:23;;;;;;;4.70;4.20;;;9.70;99.90;;;;;;7377233;19;20341;-74
2022/04/27 07:59:49;;;;;;;5.27;4.77;;;9.90;99.90;;;;;;7374001;19;20369;-80
2022/04/27 08:02:14;;;;;;;6.07;4.85;;;10.00;99.90;;;;;;7377752;19;20426;-78
2022/04/27 08:04:40;;;;;;;4.83;4.30;;;10.00;99.90;;;;;;7379411;19;20367;-79
2022/04/27 08:07:05;;;;;;;4.23;3.83;;;10.20;99.90;;;;;;7372357;19;20678;-76
2022/04/27 08:09:31;;;;;;;4.53;4.13;;;10.30;99.90;;;;;;7375514;19;20404;-79
2022/04/27 08:11:57;;;;;;;6.53;4.90;;;10.50;99.90;;;;;;7376326;19;20436;-77
2022/04/27 08:14:22;;;;;;;4.28;3.88;;;10.70;99.90;;;;;;7376072;19;20328;-75
2022/04/27 08:16:48;;;;;;;5.07;4.33;;;10.80;99.90;;;;;;7372850;19;20340;-77
2022/04/27 08:19:14;;;;;;;4.55;3.83;;;10.90;99.90;;;;;;7373531;19;21011;-76
2022/04/27 08:21:39;;;;;;;6.77;4.77;;;11.10;99.90;;;;;;7373897;19;20320;-77
2022/04/27 08:24:10;;;;;;;5.20;4.35;;;11.20;99.90;;;;;;7378978;19;20332;-79
2022/04/27 08:26:35;;;;;;;4.90;4.40;;;11.30;99.90;;;;;;7371127;19;20336;-74
2022/04/27 08:29:01;;;;;;;5.35;4.45;;;11.40;99.90;;;;;;7377408;19;20325;-84
2022/04/27 08:31:26;;;;;;;5.47;4.80;;;11.40;99.90;;;;;;7372657;19;20336;-79
2022/04/27 08:33:52;;;;;;;4.37;3.73;;;11.50;99.90;;;;;;7376250;19;20342;-75
2022/04/27 08:36:18;;;;;;;7.18;4.53;;;11.50;99.90;;;;;;7372829;19;20320;-75
2022/04/27 08:38:43;;;;;;;4.77;4.23;;;11.50;99.90;;;;;;7374464;19;20344;-85
2022/04/27 08:41:09;;;;;;;5.72;4.20;;;11.50;99.90;;;;;;7373417;19;20331;-77
2022/04/27 08:43:34;;;;;;;5.83;4.90;;;11.70;99.90;;;;;;7378502;19;20321;-77
2022/04/27 08:46:03;;;;;;;5.87;4.97;;;11.70;99.90;;;;;;7373743;19;20344;-76
2022/04/27 08:48:29;;;;;;;5.97;4.78;;;11.60;99.90;;;;;;7374228;19;20946;-77
2022/04/27 08:50:55;;;;;;;6.25;5.40;;;11.60;99.90;;;;;;7374272;19;20624;-77
2022/04/27 08:53:21;;;;;;;7.47;5.13;;;11.80;99.90;;;;;;7379236;19;20674;-79
2022/04/27 08:55:47;;;;;;;4.93;4.43;;;12.10;99.90;;;;;;7375008;19;20803;-83
2022/04/27 08:58:15;;;;;;;7.43;5.28;;;12.50;99.90;;;;;;7376071;19;20398;-79
2022/04/27 09:00:41;;;;;;;5.43;4.93;;;12.60;99.90;;;;;;7374108;19;20375;-84
2022/04/27 09:03:29;;;;;;;5.43;4.88;;;12.60;99.90;;;;;;7378229;19;20316;-83
2022/04/27 09:05:59;;;;;;;6.38;5.20;;;12.70;99.90;;;;;;7273238;19;2004255;-76
2022/04/27 09:08:26;;;;;;;6.07;5.18;;;12.80;99.90;;;;;;7380086;19;20317;-80
2022/04/27 09:11:32;;;;;;;5.50;5.00;;;12.90;99.90;;;;;;7375118;19;20369;-83
2022/04/27 09:14:02;;;;;;;6.07;5.47;;;13.00;99.90;;;;;;7270737;19;2004322;-73
2022/04/27 09:22:04;;;;;;;5.57;5.03;;;13.70;99.90;;;;;;7273978;19;2004507;-74
2022/04/27 09:24:50;;;;;;;5.70;5.07;;;14.00;99.90;;;;;;7371538;19;20419;-75
2022/04/27 09:27:20;;;;;;;6.32;5.28;;;14.30;99.90;;;;;;7271204;19;2004693;-76
2022/04/27 09:30:01;;;;;;;6.72;5.30;;;14.50;99.90;;;;;;7369778;19;20467;-78
2022/04/27 09:32:27;;;;;;;5.82;5.18;;;14.80;99.90;;;;;;7273620;19;2004267;-76
2022/04/27 09:34:53;;;;;;;7.60;4.80;;;15.00;99.90;;;;;;7372087;19;20355;-81
2022/04/27 09:37:24;;;;;;;6.38;5.25;;;15.30;99.90;;;;;;7372708;19;20347;-75
2022/04/27 09:40:02;;;;;;;5.60;5.10;;;15.70;99.90;;;;;;7368533;19;20345;-76
2022/04/27 09:42:32;;;;;;;5.25;4.75;;;15.90;99.90;;;;;;7267514;19;2004392;-78
2022/04/27 09:45:17;;;;;;;5.32;4.57;;;16.10;99.90;;;;;;7371850;19;20431;-85
2022/04/27 09:47:50;;;;;;;5.32;4.82;;;16.40;99.90;;;;;;7266132;19;2004316;-76
2022/04/27 09:50:16;;;;;;;5.32;4.57;;;16.50;99.90;;;;;;7371661;19;20329;-80
2022/04/27 09:52:43;;;;;;;6.60;4.68;;;16.80;99.90;;;;;;7372430;19;20324;-84
2022/04/27 09:55:10;;;;;;;4.68;3.78;;;17.00;99.90;;;;;;7369163;19;20961;-79
2022/04/27 09:57:38;;;;;;;5.73;4.73;;;17.40;99.90;;;;;;7369564;19;20360;-78
2022/04/27 10:00:05;;;;;;;6.82;4.15;;;18.00;99.90;;;;;;7368088;19;20377;-74
2022/04/27 10:02:38;;;;;;;5.00;4.20;;;18.20;99.90;;;;;;7372413;19;20325;-78
2022/04/27 10:05:04;;;;;;;4.57;4.18;;;18.40;99.90;;;;;;7371902;19;20437;-77
2022/04/27 10:07:32;;;;;;;4.10;3.70;;;18.60;99.90;;;;;;7369377;19;20431;-78
2022/04/27 10:09:58;;;;;;;4.55;3.80;;;19.10;99.90;;;;;;7368909;19;20691;-80
2022/04/27 10:12:24;;;;;;;3.60;3.30;;;19.60;99.90;;;;;;7373878;19;20334;-76
2022/04/27 10:14:50;;;;;;;3.30;2.80;;;19.50;99.90;;;;;;7367255;19;20353;-77
2022/04/27 10:17:15;;;;;;;2.67;2.30;;;19.30;98.40;;;;;;7368711;19;20354;-85
2022/04/27 10:19:47;;;;;;;2.67;2.30;;;19.20;93.40;;;;;;7369544;19;20368;-80
2022/04/27 10:22:31;;;;;;;2.80;2.00;;;19.10;93.80;;;;;;7372184;19;20360;-75
2022/04/27 10:24:58;;;;;;;2.25;2.05;;;19.70;95.40;;;;;;7267602;19;2004379;-81
2022/04/27 10:27:33;;;;;;;2.53;2.33;;;20.50;94.60;;;;;;7369797;19;20685;-79
2022/04/27 10:30:07;;;;;;;2.40;2.20;;;20.60;86.10;;;;;;7368962;19;20340;-80
2022/04/27 10:32:36;;;;;;;2.30;2.10;;;19.80;79.60;;;;;;7370906;19;20344;-79
2022/04/27 10:35:19;;;;;;;3.40;2.47;;;20.20;82.40;;;;;;7371605;19;20361;-76
2022/04/27 10:37:54;;;;;;;2.30;2.10;;;20.10;80.10;;;;;;7270075;19;2004431;-78
2022/04/27 10:40:32;;;;;;;3.08;2.50;;;20.20;75.70;;;;;;7367821;19;20340;-76
2022/04/27 10:43:01;;;;;;;3.37;2.10;;;19.60;74.30;;;;;;7369304;19;20352;-75
2022/04/27 10:45:27;;;;;;;2.65;2.10;;;20.00;77.50;;;;;;7373497;19;20340;-81
2022/04/27 10:47:52;;;;;;;2.22;2.03;;;19.80;74.80;;;;;;7377588;19;20748;-73
2022/04/27 10:50:28;;;;;;;2.70;2.03;;;19.50;73.20;;;;;;7377442;19;20704;-79
2022/04/27 10:52:55;;;;;;;3.73;1.90;;;20.40;73.80;;;;;;7380080;19;20348;-74
2022/04/27 10:55:37;;;;;;;2.00;1.80;;;20.50;70.30;;;;;;7377159;19;20337;-78
2022/04/27 10:58:25;;;;;;;1.70;1.60;;;20.60;71.10;;;;;;7377391;19;20348;-81
2022/04/27 11:01:02;;;;;;;2.85;1.95;;;20.70;66.40;;;;;;7275560;19;2004714;-81
2022/04/27 11:03:41;;;;;;;1.70;1.60;;;21.00;64.30;;;;;;7380579;19;20975;-74
2022/04/27 11:06:10;;;;;;;3.75;1.70;;;21.80;73.00;;;;;;7372553;19;21219;-76
2022/04/27 11:08:36;;;;;;;2.08;1.88;;;22.40;64.10;;;;;;7377540;19;20324;-75
2022/04/27 11:11:05;;;;;;;2.60;1.90;;;21.30;58.40;;;;;;7377469;19;20349;-78
2022/04/27 11:13:30;;;;;;;1.75;1.65;;;20.50;57.50;;;;;;7377163;19;20412;-73
2022/04/27 11:16:06;;;;;;;1.90;1.70;;;20.20;59.60;;;;;;7374700;19;20309;-75
2022/04/27 11:18:52;;;;;;;1.88;1.67;;;20.20;60.00;;;;;;7273191;19;2004371;-78
2022/04/27 11:21:17;;;;;;;1.98;1.77;;;20.20;61.20;;;;;;7272155;19;2004401;-76
2022/04/27 11:23:43;;;;;;;1.70;1.60;;;20.30;60.60;;;;;;7378204;19;20351;-73
2022/04/27 11:26:09;;;;;;;1.80;1.70;;;20.70;60.20;;;;;;7371036;19;20352;-78
2022/04/27 11:28:36;;;;;;;3.43;2.00;;;20.60;58.40;;;;;;7377540;19;20456;-76
2022/04/27 11:31:01;;;;;;;4.10;2.38;;;20.60;61.50;;;;;;7372280;19;20348;-73
2022/04/27 11:33:27;;;;;;;1.80;1.70;;;20.10;59.70;;;;;;7375851;19;20339;-81
2022/04/27 11:35:53;;;;;;;2.40;1.80;;;19.70;61.00;;;;;;7377338;19;20333;-80
2022/04/27 11:38:19;;;;;;;2.60;1.90;;;19.70;61.00;;;;;;7379068;19;20343;-74
2022/04/27 11:40:45;;;;;;;2.03;1.83;;;19.70;63.50;;;;;;7369308;19;20339;-83
2022/04/27 11:43:11;;;;;;;2.77;1.90;;;19.30;62.30;;;;;;7377612;19;20668;-74
2022/04/27 11:45:37;;;;;;;2.28;1.80;;;19.30;60.00;;;;;;7376481;19;20873;-78
2022/04/27 11:48:07;;;;;;;1.73;1.63;;;20.20;62.20;;;;;;7378926;19;20341;-78
2022/04/27 11:50:34;;;;;;;2.40;1.67;;;20.60;60.00;;;;;;7269093;19;2004671;-74
2022/04/27 11:53:07;;;;;;;2.88;1.83;;;20.70;58.70;;;;;;7377359;19;20361;-74
2022/04/27 11:55:33;;;;;;;2.10;1.90;;;21.00;57.90;;;;;;7373007;19;20358;-79
2022/04/27 11:58:00;;;;;;;1.70;1.60;;;21.00;55.10;;;;;;7378251;19;20321;-77
2022/04/27 12:00:27;;;;;;;1.77;1.67;;;20.70;56.30;;;;;;7371346;19;20337;-85
2022/04/27 12:02:53;;;;;;;3.35;1.85;;;20.80;58.00;;;;;;7375148;19;20359;-81
2022/04/27 12:05:29;;;;;;;1.80;1.70;;;20.60;55.60;;;;;;7375809;19;21230;-79
2022/04/27 12:07:55;;;;;;;2.00;1.80;;;21.70;60.20;;;;;;7276074;19;2004586;-82
2022/04/27 12:10:20;;;;;;;2.20;2.00;;;22.00;58.90;;;;;;7369727;19;20360;-80
2022/04/27 12:12:46;;;;;;;1.63;1.53;;;23.00;58.10;;;;;;7374625;19;20352;-79
2022/04/27 12:15:13;;;;;;;3.20;1.67;;;24.00;58.30;;;;;;7374917;19;20315;-77
2022/04/27 12:17:55;;;;;;;1.90;1.80;;;23.70;52.40;;;;;;7378575;19;20344;-75
2022/04/27 12:20:42;;;;;;;2.00;1.90;;;22.70;51.40;;;;;;7373193;19;20791;-72
2022/04/27 12:23:11;;;;;;;4.87;1.80;;;23.50;52.80;;;;;;7275062;19;2026515;-79
2022/04/27 12:25:43;;;;;;;1.80;1.70;;;21.60;49.00;;;;;;7377159;19;20337;-76
2022/04/27 12:28:13;;;;;;;2.40;1.98;;;22.60;51.40;;;;;;7375964;19;20870;-77
2022/04/27 12:30:57;;;;;;;2.40;1.90;;;23.30;55.80;;;;;;7366623;19;20352;-76
2022/04/27 12:33:29;;;;;;;2.38;2.00;;;21.90;50.20;;;;;;7371727;19;20872;-76
2022/04/27 12:39:05;;;;;;;1.88;1.70;;;22.20;55.20;;;;;;7376094;19;20348;-77
2022/04/27 12:41:43;;;;;;;2.10;1.70;;;22.60;51.80;;;;;;7269239;19;2004918;-83
2022/04/27 12:44:15;;;;;;;1.90;1.80;;;22.40;50.60;;;;;;7273133;19;2004456;-76
2022/04/27 12:46:58;;;;;;;2.20;2.00;;;20.90;48.10;;;;;;7374959;19;20316;-81
2022/04/27 12:49:42;;;;;;;2.13;1.90;;;20.70;50.90;;;;;;7272214;19;2004421;-77
2022/04/27 12:52:26;;;;;;;2.10;1.88;;;20.40;51.20;;;;;;7267072;19;2004391;-83
2022/04/27 12:55:13;;;;;;;1.90;1.80;;;20.40;53.10;;;;;;7372526;19;20347;-76
2022/04/27 12:57:49;;;;;;;1.50;1.40;;;19.80;49.50;;;;;;7374270;19;20337;-75
2022/04/27 13:00:19;;;;;;;1.83;1.73;;;21.30;54.10;;;;;;7366086;19;20902;-74
2022/04/27 13:02:44;;;;;;;2.00;1.60;;;21.00;48.70;;;;;;7369993;19;20959;-76
2022/04/27 13:05:10;;;;;;;3.10;1.60;;;20.90;51.40;;;;;;7370675;19;20340;-75
2022/04/27 13:07:36;;;;;;;2.03;1.80;;;20.80;51.10;;;;;;7374340;19;20349;-73
2022/04/27 13:12:46;;;;;;;3.03;1.83;;;21.00;48.10;;;;;;7370990;19;20351;-76
2022/04/27 13:15:12;;;;;;;1.40;1.30;;;21.10;51.30;;;;;;7370284;19;20348;-77
2022/04/27 13:17:37;;;;;;;1.73;1.60;;;20.40;50.10;;;;;;7371391;19;21227;-79
2022/04/27 13:20:04;;;;;;;1.90;1.70;;;20.20;51.80;;;;;;7367201;19;20355;-79
2022/04/27 13:22:30;;;;;;;4.10;1.77;;;19.70;51.30;;;;;;7370893;19;20887;-76
2022/04/27 13:24:56;;;;;;;1.60;1.50;;;20.10;52.50;;;;;;7373381;19;20349;-81
2022/04/27 13:27:24;;;;;;;1.77;1.67;;;20.50;51.00;;;;;;7368869;19;20357;-80
2022/04/27 13:29:49;;;;;;;1.65;1.55;;;20.20;49.70;;;;;;7369779;19;20372;-79